sensor_id;sensor_type;location;lat;lon;timestamp;pressure;altitude;pressure_sealevel;temperature;humidity
69214;BME280;56325;47.030;18.518;2022-09-12T00:01:15;100333.78;;;15.48;78.85
69214;BME280;56325;47.030;18.518;2022-09-12T00:03:52;100333.31;;;15.49;79.11
69214;BME280;56325;47.030;18.518;2022-09-12T00:06:28;100337.53;;;15.45;79.12
69214;BME280;56325;47.030;18.518;2022-09-12T00:09:05;100338.94;;;15.60;78.94
69214;BME280;56325;47.030;18.518;2022-09-12T00:11:43;100330.44;;;15.69;78.22
69214;BME280;56325;47.030;18.518;2022-09-12T00:14:18;100329.66;;;15.63;78.58
69214;BME280;56325;47.030;18.518;2022-09-12T00:16:52;100334.09;;;15.55;78.72
69214;BME280;56325;47.030;18.518;2022-09-12T00:19:30;100331.03;;;15.48;79.04
69214;BME280;56325;47.030;18.518;2022-09-12T00:22:04;100330.09;;;15.56;78.57
69214;BME280;56325;47.030;18.518;2022-09-12T00:24:38;100332.59;;;15.54;78.72
69214;BME280;56325;47.030;18.518;2022-09-12T00:27:14;100331.44;;;15.40;79.47
69214;BME280;56325;47.030;18.518;2022-09-12T00:29:48;100328.25;;;15.48;79.19
69214;BME280;56325;47.030;18.518;2022-09-12T00:32:23;100329.06;;;15.54;78.92
69214;BME280;56325;47.030;18.518;2022-09-12T00:34:57;100322.97;;;15.50;79.00
69214;BME280;56325;47.030;18.518;2022-09-12T00:37:31;100319.94;;;15.48;79.30
69214;BME280;56325;47.030;18.518;2022-09-12T00:40:06;100322.00;;;15.53;79.12
69214;BME280;56325;47.030;18.518;2022-09-12T00:42:42;100325.19;;;15.46;79.30
69214;BME280;56325;47.030;18.518;2022-09-12T00:45:22;100322.59;;;15.36;79.71
69214;BME280;56325;47.030;18.518;2022-09-12T00:48:00;100331.66;;;15.37;79.85
69214;BME280;56325;47.030;18.518;2022-09-12T00:50:36;100321.03;;;15.30;79.98
69214;BME280;56325;47.030;18.518;2022-09-12T00:53:10;100333.56;;;15.51;79.49
69214;BME280;56325;47.030;18.518;2022-09-12T00:55:46;100320.59;;;15.37;79.76
69214;BME280;56325;47.030;18.518;2022-09-12T00:58:27;100328.56;;;15.55;79.24
69214;BME280;56325;47.030;18.518;2022-09-12T01:01:03;100324.34;;;15.60;78.79
69214;BME280;56325;47.030;18.518;2022-09-12T01:03:37;100315.69;;;15.52;79.35
69214;BME280;56325;47.030;18.518;2022-09-12T01:06:15;100322.91;;;15.44;79.71
69214;BME280;56325;47.030;18.518;2022-09-12T01:08:51;100327.38;;;15.36;80.11
69214;BME280;56325;47.030;18.518;2022-09-12T01:11:27;100334.22;;;15.15;80.87
69214;BME280;56325;47.030;18.518;2022-09-12T01:14:06;100333.62;;;15.31;80.32
69214;BME280;56325;47.030;18.518;2022-09-12T01:16:41;100331.87;;;15.33;80.11
69214;BME280;56325;47.030;18.518;2022-09-12T01:19:35;100325.88;;;15.35;80.01
69214;BME280;56325;47.030;18.518;2022-09-12T01:22:26;100327.97;;;15.20;80.36
69214;BME280;56325;47.030;18.518;2022-09-12T01:25:09;100322.44;;;15.20;80.62
69214;BME280;56325;47.030;18.518;2022-09-12T01:27:56;100328.25;;;15.48;79.14
69214;BME280;56325;47.030;18.518;2022-09-12T01:30:48;100317.50;;;15.29;79.76
69214;BME280;56325;47.030;18.518;2022-09-12T01:33:38;100317.94;;;15.22;79.83
69214;BME280;56325;47.030;18.518;2022-09-12T01:36:37;100325.47;;;15.22;79.90
69214;BME280;56325;47.030;18.518;2022-09-12T01:39:19;100318.91;;;15.19;79.94
69214;BME280;56325;47.030;18.518;2022-09-12T01:42:02;100322.44;;;15.20;79.82
69214;BME280;56325;47.030;18.518;2022-09-12T01:44:48;100325.63;;;15.13;79.90
69214;BME280;56325;47.030;18.518;2022-09-12T01:47:30;100322.53;;;15.05;80.28
69214;BME280;56325;47.030;18.518;2022-09-12T01:50:09;100319.41;;;15.18;79.61
69214;BME280;56325;47.030;18.518;2022-09-12T01:52:50;100319.28;;;15.06;79.84
69214;BME280;56325;47.030;18.518;2022-09-12T01:55:28;100313.31;;;15.14;79.46
69214;BME280;56325;47.030;18.518;2022-09-12T01:58:07;100321.63;;;15.14;79.32
69214;BME280;56325;47.030;18.518;2022-09-12T02:00:46;100320.25;;;15.03;79.72
69214;BME280;56325;47.030;18.518;2022-09-12T02:03:26;100319.22;;;15.01;79.58
69214;BME280;56325;47.030;18.518;2022-09-12T02:06:07;100323.16;;;14.94;79.60
69214;BME280;56325;47.030;18.518;2022-09-12T02:08:49;100321.78;;;14.84;79.85
69214;BME280;56325;47.030;18.518;2022-09-12T02:11:24;100317.16;;;14.75;80.20
69214;BME280;56325;47.030;18.518;2022-09-12T02:14:02;100315.19;;;14.56;81.02
69214;BME280;56325;47.030;18.518;2022-09-12T02:16:41;100316.84;;;14.68;80.56
69214;BME280;56325;47.030;18.518;2022-09-12T02:19:21;100311.87;;;14.72;80.66
69214;BME280;56325;47.030;18.518;2022-09-12T02:21:59;100316.56;;;14.66;80.99
69214;BME280;56325;47.030;18.518;2022-09-12T02:24:37;100316.78;;;14.42;81.94
69214;BME280;56325;47.030;18.518;2022-09-12T02:27:14;100315.19;;;14.56;81.63
69214;BME280;56325;47.030;18.518;2022-09-12T02:29:49;100325.16;;;14.48;81.71
69214;BME280;56325;47.030;18.518;2022-09-12T02:32:29;100315.88;;;14.51;81.45
69214;BME280;56325;47.030;18.518;2022-09-12T02:35:13;100320.69;;;14.35;82.17
69214;BME280;56325;47.030;18.518;2022-09-12T02:37:56;100320.31;;;14.42;81.85
69214;BME280;56325;47.030;18.518;2022-09-12T02:40:34;100314.84;;;14.48;81.62
69214;BME280;56325;47.030;18.518;2022-09-12T02:43:08;100324.00;;;14.39;82.01
69214;BME280;56325;47.030;18.518;2022-09-12T02:45:43;100312.97;;;14.60;81.17
69214;BME280;56325;47.030;18.518;2022-09-12T02:48:20;100309.38;;;14.54;81.06
69214;BME280;56325;47.030;18.518;2022-09-12T02:50:57;100309.34;;;14.33;81.90
69214;BME280;56325;47.030;18.518;2022-09-12T02:53:31;100318.87;;;14.32;82.07
69214;BME280;56325;47.030;18.518;2022-09-12T02:56:10;100318.00;;;14.41;81.66
69214;BME280;56325;47.030;18.518;2022-09-12T02:58:47;100312.38;;;14.35;81.79
69214;BME280;56325;47.030;18.518;2022-09-12T03:01:28;100319.09;;;14.29;82.10
69214;BME280;56325;47.030;18.518;2022-09-12T03:04:23;100309.41;;;14.39;81.68
69214;BME280;56325;47.030;18.518;2022-09-12T03:07:11;100310.31;;;14.30;82.16
69214;BME280;56325;47.030;18.518;2022-09-12T03:09:51;100314.66;;;14.37;81.67
69214;BME280;56325;47.030;18.518;2022-09-12T03:12:41;100315.16;;;14.35;82.06
69214;BME280;56325;47.030;18.518;2022-09-12T03:15:27;100313.69;;;14.40;81.61
69214;BME280;56325;47.030;18.518;2022-09-12T03:18:10;100309.47;;;14.24;82.02
69214;BME280;56325;47.030;18.518;2022-09-12T03:20:59;100313.25;;;14.41;81.53
69214;BME280;56325;47.030;18.518;2022-09-12T03:23:42;100317.06;;;14.29;82.07
69214;BME280;56325;47.030;18.518;2022-09-12T03:26:22;100313.91;;;14.36;81.89
69214;BME280;56325;47.030;18.518;2022-09-12T03:29:00;100310.91;;;14.20;82.59
69214;BME280;56325;47.030;18.518;2022-09-12T03:31:36;100313.91;;;14.36;81.89
69214;BME280;56325;47.030;18.518;2022-09-12T03:34:11;100325.97;;;14.19;82.48
69214;BME280;56325;47.030;18.518;2022-09-12T03:36:45;100316.44;;;14.20;82.80
69214;BME280;56325;47.030;18.518;2022-09-12T03:39:21;100324.41;;;14.32;82.31
69214;BME280;56325;47.030;18.518;2022-09-12T03:41:58;100318.72;;;14.21;82.58
69214;BME280;56325;47.030;18.518;2022-09-12T03:44:32;100326.38;;;14.11;83.13
69214;BME280;56325;47.030;18.518;2022-09-12T03:47:06;100321.41;;;14.71;82.27
69214;BME280;56325;47.030;18.518;2022-09-12T03:49:43;100310.72;;;14.23;82.70
69214;BME280;56325;47.030;18.518;2022-09-12T03:52:18;100306.78;;;14.30;82.35
69214;BME280;56325;47.030;18.518;2022-09-12T03:54:54;100321.38;;;14.30;82.43
69214;BME280;56325;47.030;18.518;2022-09-12T03:57:28;100324.06;;;14.25;82.58
69214;BME280;56325;47.030;18.518;2022-09-12T04:00:03;100322.53;;;14.24;82.81
69214;BME280;56325;47.030;18.518;2022-09-12T04:02:43;100316.03;;;14.27;82.53
69214;BME280;56325;47.030;18.518;2022-09-12T04:05:18;100322.44;;;14.18;82.92
69214;BME280;56325;47.030;18.518;2022-09-12T04:07:52;100329.88;;;14.27;82.67
69214;BME280;56325;47.030;18.518;2022-09-12T04:10:28;100330.28;;;14.20;82.56
69214;BME280;56325;47.030;18.518;2022-09-12T04:13:02;100327.50;;;14.20;82.57
69214;BME280;56325;47.030;18.518;2022-09-12T04:15:36;100334.03;;;14.37;81.83
69214;BME280;56325;47.030;18.518;2022-09-12T04:18:10;100333.19;;;14.31;81.81
69214;BME280;56325;47.030;18.518;2022-09-12T04:20:44;100334.28;;;14.19;82.34
69214;BME280;56325;47.030;18.518;2022-09-12T04:23:19;100335.72;;;14.14;82.50
69214;BME280;56325;47.030;18.518;2022-09-12T04:25:55;100339.03;;;14.18;82.32
69214;BME280;56325;47.030;18.518;2022-09-12T04:28:29;100339.16;;;14.09;82.49
69214;BME280;56325;47.030;18.518;2022-09-12T04:31:06;100349.09;;;14.01;82.88
69214;BME280;56325;47.030;18.518;2022-09-12T04:33:40;100355.19;;;14.05;82.84
69214;BME280;56325;47.030;18.518;2022-09-12T04:36:16;100345.25;;;14.13;82.41
69214;BME280;56325;47.030;18.518;2022-09-12T04:38:51;100352.19;;;14.23;81.99
69214;BME280;56325;47.030;18.518;2022-09-12T04:41:28;100355.13;;;14.34;81.54
69214;BME280;56325;47.030;18.518;2022-09-12T04:44:05;100355.13;;;14.34;81.18
69214;BME280;56325;47.030;18.518;2022-09-12T04:46:41;100357.19;;;14.39;81.17
69214;BME280;56325;47.030;18.518;2022-09-12T04:49:16;100365.84;;;14.62;83.07
69214;BME280;56325;47.030;18.518;2022-09-12T04:51:52;100351.97;;;15.02;80.20
69214;BME280;56325;47.030;18.518;2022-09-12T04:54:26;100350.44;;;14.81;79.28
69214;BME280;56325;47.030;18.518;2022-09-12T04:57:02;100359.63;;;14.67;79.68
69214;BME280;56325;47.030;18.518;2022-09-12T04:59:37;100365.47;;;14.54;79.95
69214;BME280;56325;47.030;18.518;2022-09-12T05:02:12;100368.16;;;14.49;80.44
69214;BME280;56325;47.030;18.518;2022-09-12T05:04:46;100370.94;;;14.34;81.11
69214;BME280;56325;47.030;18.518;2022-09-12T05:07:20;100370.56;;;14.41;81.00
69214;BME280;56325;47.030;18.518;2022-09-12T05:09:54;100374.56;;;14.40;80.85
69214;BME280;56325;47.030;18.518;2022-09-12T05:12:30;100383.75;;;14.31;81.68
69214;BME280;56325;47.030;18.518;2022-09-12T05:15:06;100387.34;;;14.37;81.37
69214;BME280;56325;47.030;18.518;2022-09-12T05:17:40;100391.28;;;14.86;85.44
69214;BME280;56325;47.030;18.518;2022-09-12T05:20:14;100390.94;;;15.71;82.82
69214;BME280;56325;47.030;18.518;2022-09-12T05:22:49;100398.66;;;16.19;79.97
69214;BME280;56325;47.030;18.518;2022-09-12T05:25:23;100399.47;;;16.67;78.89
69214;BME280;56325;47.030;18.518;2022-09-12T05:27:59;100405.97;;;17.07;78.48
69214;BME280;56325;47.030;18.518;2022-09-12T05:30:33;100385.59;;;17.55;76.02
69214;BME280;56325;47.030;18.518;2022-09-12T05:33:08;100395.97;;;17.54;74.26
69214;BME280;56325;47.030;18.518;2022-09-12T05:35:49;100388.63;;;17.46;71.33
69214;BME280;56325;47.030;18.518;2022-09-12T05:38:25;100406.31;;;16.72;73.47
69214;BME280;56325;47.030;18.518;2022-09-12T05:41:04;100410.66;;;16.42;73.77
69214;BME280;56325;47.030;18.518;2022-09-12T05:43:42;100424.03;;;16.06;75.06
69214;BME280;56325;47.030;18.518;2022-09-12T05:46:18;100425.19;;;15.94;75.55
69214;BME280;56325;47.030;18.518;2022-09-12T05:48:53;100423.50;;;15.76;76.83
69214;BME280;56325;47.030;18.518;2022-09-12T05:51:32;100417.47;;;15.52;77.74
69214;BME280;56325;47.030;18.518;2022-09-12T05:54:09;100423.09;;;15.57;77.81
69214;BME280;56325;47.030;18.518;2022-09-12T05:56:44;100420.75;;;15.76;76.47
69214;BME280;56325;47.030;18.518;2022-09-12T05:59:20;100424.50;;;15.73;76.88
69214;BME280;56325;47.030;18.518;2022-09-12T06:01:55;100429.72;;;15.65;77.74
69214;BME280;56325;47.030;18.518;2022-09-12T06:04:30;100424.28;;;15.77;77.59
69214;BME280;56325;47.030;18.518;2022-09-12T06:07:04;100422.41;;;15.94;76.19
69214;BME280;56325;47.030;18.518;2022-09-12T06:09:39;100424.28;;;15.77;77.05
69214;BME280;56325;47.030;18.518;2022-09-12T06:12:13;100429.09;;;15.82;76.91
69214;BME280;56325;47.030;18.518;2022-09-12T06:14:49;100429.38;;;15.84;77.41
69214;BME280;56325;47.030;18.518;2022-09-12T06:17:23;100414.38;;;16.70;78.56
69214;BME280;56325;47.030;18.518;2022-09-12T06:19:57;100398.06;;;16.41;75.17
69214;BME280;56325;47.030;18.518;2022-09-12T06:22:31;100412.12;;;16.31;75.29
69214;BME280;56325;47.030;18.518;2022-09-12T06:25:06;100418.19;;;16.35;75.66
69214;BME280;56325;47.030;18.518;2022-09-12T06:27:41;100416.78;;;16.57;74.59
69214;BME280;56325;47.030;18.518;2022-09-12T06:30:17;100418.59;;;16.60;74.51
69214;BME280;56325;47.030;18.518;2022-09-12T06:32:56;100420.72;;;16.76;73.92
69214;BME280;56325;47.030;18.518;2022-09-12T06:35:34;100421.97;;;16.75;73.90
69214;BME280;56325;47.030;18.518;2022-09-12T06:38:09;100424.22;;;16.71;73.89
69214;BME280;56325;47.030;18.518;2022-09-12T06:40:43;100425.03;;;16.77;73.28
69214;BME280;56325;47.030;18.518;2022-09-12T06:43:17;100419.31;;;16.55;73.71
69214;BME280;56325;47.030;18.518;2022-09-12T06:45:54;100415.66;;;16.75;72.96
69214;BME280;56325;47.030;18.518;2022-09-12T06:48:28;100414.16;;;16.74;73.05
69214;BME280;56325;47.030;18.518;2022-09-12T06:51:04;100413.22;;;16.88;72.83
69214;BME280;56325;47.030;18.518;2022-09-12T06:53:38;100413.94;;;16.83;72.45
69214;BME280;56325;47.030;18.518;2022-09-12T06:56:15;100407.66;;;16.88;72.16
69214;BME280;56325;47.030;18.518;2022-09-12T06:58:51;100416.28;;;17.01;72.25
69214;BME280;56325;47.030;18.518;2022-09-12T07:01:29;100403.94;;;17.08;71.17
69214;BME280;56325;47.030;18.518;2022-09-12T07:04:04;100409.59;;;17.30;71.09
69214;BME280;56325;47.030;18.518;2022-09-12T07:06:40;100423.41;;;17.08;70.80
69214;BME280;56325;47.030;18.518;2022-09-12T07:09:16;100414.50;;;16.98;71.32
69214;BME280;56325;47.030;18.518;2022-09-12T07:11:50;100418.09;;;17.10;71.04
69214;BME280;56325;47.030;18.518;2022-09-12T07:14:24;100412.59;;;17.26;69.95
69214;BME280;56325;47.030;18.518;2022-09-12T07:17:00;100398.16;;;17.17;69.66
69214;BME280;56325;47.030;18.518;2022-09-12T07:19:34;100390.63;;;17.40;69.81
69214;BME280;56325;47.030;18.518;2022-09-12T07:22:09;100398.75;;;17.54;69.43
69214;BME280;56325;47.030;18.518;2022-09-12T07:24:44;100406.13;;;17.68;68.80
69214;BME280;56325;47.030;18.518;2022-09-12T07:27:20;100406.34;;;17.65;68.30
69214;BME280;56325;47.030;18.518;2022-09-12T07:29:54;100412.72;;;17.77;68.49
69214;BME280;56325;47.030;18.518;2022-09-12T07:32:30;100410.69;;;17.94;68.28
69214;BME280;56325;47.030;18.518;2022-09-12T07:35:05;100409.19;;;18.04;67.18
69214;BME280;56325;47.030;18.518;2022-09-12T07:37:39;100416.00;;;18.09;66.91
69214;BME280;56325;47.030;18.518;2022-09-12T07:40:14;100418.53;;;18.12;67.00
69214;BME280;56325;47.030;18.518;2022-09-12T07:42:48;100422.84;;;18.13;66.32
69214;BME280;56325;47.030;18.518;2022-09-12T07:45:22;100421.84;;;18.05;66.33
69214;BME280;56325;47.030;18.518;2022-09-12T07:48:00;100424.88;;;17.96;66.47
69214;BME280;56325;47.030;18.518;2022-09-12T07:50:34;100422.84;;;18.02;66.13
69214;BME280;56325;47.030;18.518;2022-09-12T07:53:13;100421.84;;;17.99;65.92
69214;BME280;56325;47.030;18.518;2022-09-12T07:55:52;100430.69;;;17.98;65.79
69214;BME280;56325;47.030;18.518;2022-09-12T07:58:26;100428.41;;;18.13;66.62
69214;BME280;56325;47.030;18.518;2022-09-12T08:01:02;100425.59;;;18.24;66.25
69214;BME280;56325;47.030;18.518;2022-09-12T08:03:38;100426.09;;;18.28;65.10
69214;BME280;56325;47.030;18.518;2022-09-12T08:06:14;100423.81;;;18.38;65.18
69214;BME280;56325;47.030;18.518;2022-09-12T08:08:49;100426.59;;;18.60;65.27
69214;BME280;56325;47.030;18.518;2022-09-12T08:11:25;100424.53;;;18.66;64.73
69214;BME280;56325;47.030;18.518;2022-09-12T08:14:00;100424.22;;;18.92;63.40
69214;BME280;56325;47.030;18.518;2022-09-12T08:16:37;100425.72;;;18.99;62.97
69214;BME280;56325;47.030;18.518;2022-09-12T08:19:13;100426.44;;;19.05;62.71
69214;BME280;56325;47.030;18.518;2022-09-12T08:21:47;100421.50;;;19.28;62.46
69214;BME280;56325;47.030;18.518;2022-09-12T08:24:21;100423.03;;;19.23;61.43
69214;BME280;56325;47.030;18.518;2022-09-12T08:26:56;100420.75;;;19.27;60.64
69214;BME280;56325;47.030;18.518;2022-09-12T08:29:30;100433.87;;;19.38;60.75
69214;BME280;56325;47.030;18.518;2022-09-12T08:32:05;100417.53;;;19.64;60.61
69214;BME280;56325;47.030;18.518;2022-09-12T08:34:41;100427.28;;;19.82;60.61
69214;BME280;56325;47.030;18.518;2022-09-12T08:37:15;100412.53;;;19.87;61.11
69214;BME280;56325;47.030;18.518;2022-09-12T08:39:49;100417.63;;;20.13;60.42
69214;BME280;56325;47.030;18.518;2022-09-12T08:42:30;100422.06;;;20.27;58.54
69214;BME280;56325;47.030;18.518;2022-09-12T08:45:16;100423.00;;;20.36;58.24
69214;BME280;56325;47.030;18.518;2022-09-12T08:47:54;100410.59;;;20.07;57.48
69214;BME280;56325;47.030;18.518;2022-09-12T08:50:30;100416.66;;;20.35;58.38
69214;BME280;56325;47.030;18.518;2022-09-12T08:53:11;100421.38;;;20.51;56.89
69214;BME280;56325;47.030;18.518;2022-09-12T08:55:52;100412.34;;;20.40;56.13
69214;BME280;56325;47.030;18.518;2022-09-12T09:22:28;100423.56;;;21.02;52.79
69214;BME280;56325;47.030;18.518;2022-09-12T09:25:09;100421.84;;;20.99;53.65
69214;BME280;56325;47.030;18.518;2022-09-12T09:27:49;100421.66;;;20.91;53.61
69214;BME280;56325;47.030;18.518;2022-09-12T09:30:25;100421.16;;;21.11;52.55
69214;BME280;56325;47.030;18.518;2022-09-12T09:33:02;100408.44;;;21.35;51.48
69214;BME280;56325;47.030;18.518;2022-09-12T09:35:43;100415.75;;;21.56;52.47
69214;BME280;56325;47.030;18.518;2022-09-12T09:38:24;100411.91;;;21.41;50.84
69214;BME280;56325;47.030;18.518;2022-09-12T09:41:16;100406.25;;;21.46;49.93
69214;BME280;56325;47.030;18.518;2022-09-12T09:43:53;100400.81;;;21.67;50.64
69214;BME280;56325;47.030;18.518;2022-09-12T09:46:33;100405.72;;;21.80;49.88
69214;BME280;56325;47.030;18.518;2022-09-12T09:49:10;100397.72;;;21.71;49.72
69214;BME280;56325;47.030;18.518;2022-09-12T09:51:46;100395.66;;;21.71;50.52
69214;BME280;56325;47.030;18.518;2022-09-12T09:54:24;100399.72;;;21.19;51.37
69214;BME280;56325;47.030;18.518;2022-09-12T09:56:59;100397.25;;;21.35;52.22
69214;BME280;56325;47.030;18.518;2022-09-12T09:59:36;100395.12;;;21.73;50.61
69214;BME280;56325;47.030;18.518;2022-09-12T10:02:19;100391.72;;;21.80;50.17
69214;BME280;56325;47.030;18.518;2022-09-12T10:04:57;100395.97;;;21.68;50.00
69214;BME280;56325;47.030;18.518;2022-09-12T10:07:31;100399.44;;;21.23;50.99
69214;BME280;56325;47.030;18.518;2022-09-12T10:10:15;100400.69;;;21.03;51.35
69214;BME280;56325;47.030;18.518;2022-09-12T10:12:50;100395.16;;;20.98;52.01
69214;BME280;56325;47.030;18.518;2022-09-12T10:15:25;100395.47;;;20.94;53.56
69214;BME280;56325;47.030;18.518;2022-09-12T10:17:59;100397.28;;;20.91;53.52
69214;BME280;56325;47.030;18.518;2022-09-12T10:20:37;100393.50;;;20.89;54.49
69214;BME280;56325;47.030;18.518;2022-09-12T10:23:25;100397.28;;;20.91;53.56
69214;BME280;56325;47.030;18.518;2022-09-12T10:26:09;100394.56;;;21.05;53.63
69214;BME280;56325;47.030;18.518;2022-09-12T10:28:46;100391.09;;;20.99;52.16
69214;BME280;56325;47.030;18.518;2022-09-12T10:31:24;100390.31;;;20.79;53.28
69214;BME280;56325;47.030;18.518;2022-09-12T10:34:01;100382.00;;;20.92;53.72
69214;BME280;56325;47.030;18.518;2022-09-12T10:36:38;100391.03;;;21.23;52.38
69214;BME280;56325;47.030;18.518;2022-09-12T10:39:16;100378.56;;;21.75;51.04
69214;BME280;56325;47.030;18.518;2022-09-12T10:41:53;100384.47;;;22.03;50.86
69214;BME280;56325;47.030;18.518;2022-09-12T10:44:29;100382.34;;;21.77;50.58
69214;BME280;56325;47.030;18.518;2022-09-12T10:47:19;100381.81;;;21.47;49.38
69214;BME280;56325;47.030;18.518;2022-09-12T10:50:20;100387.62;;;21.11;50.12
69214;BME280;56325;47.030;18.518;2022-09-12T10:53:12;100380.88;;;20.82;52.38
69214;BME280;56325;47.030;18.518;2022-09-12T10:56:06;100382.38;;;20.65;52.50
69214;BME280;56325;47.030;18.518;2022-09-12T10:59:03;100396.63;;;20.61;53.83
69214;BME280;56325;47.030;18.518;2022-09-12T11:01:45;100398.47;;;20.28;54.29
69214;BME280;56325;47.030;18.518;2022-09-12T11:04:40;100390.41;;;20.49;54.65
69214;BME280;56325;47.030;18.518;2022-09-12T11:07:34;100387.31;;;20.96;54.19
69214;BME280;56325;47.030;18.518;2022-09-12T11:10:25;100381.28;;;21.30;53.21
69214;BME280;56325;47.030;18.518;2022-09-12T11:13:24;100370.94;;;21.24;53.85
69214;BME280;56325;47.030;18.518;2022-09-12T11:16:09;100381.56;;;21.07;53.54
69214;BME280;56325;47.030;18.518;2022-09-12T11:18:58;100377.34;;;21.01;51.57
69214;BME280;56325;47.030;18.518;2022-09-12T11:21:46;100372.78;;;20.98;51.68
69214;BME280;56325;47.030;18.518;2022-09-12T11:24:33;100371.88;;;20.89;50.98
69214;BME280;56325;47.030;18.518;2022-09-12T11:27:26;100378.06;;;20.82;52.03
69214;BME280;56325;47.030;18.518;2022-09-12T11:30:03;100366.47;;;20.78;53.20
69214;BME280;56325;47.030;18.518;2022-09-12T11:33:05;100368.16;;;20.81;53.10
69214;BME280;56325;47.030;18.518;2022-09-12T11:35:46;100367.34;;;20.68;52.96
69214;BME280;56325;47.030;18.518;2022-09-12T11:38:49;100367.59;;;20.45;53.81
69214;BME280;56325;47.030;18.518;2022-09-12T11:41:26;100360.66;;;20.52;54.63
69214;BME280;56325;47.030;18.518;2022-09-12T11:44:13;100365.22;;;20.55;54.68
69214;BME280;56325;47.030;18.518;2022-09-12T11:46:49;100364.59;;;20.38;55.25
69214;BME280;56325;47.030;18.518;2022-09-12T11:49:31;100365.63;;;20.40;55.58
69214;BME280;56325;47.030;18.518;2022-09-12T11:52:13;100356.50;;;20.34;55.46
69214;BME280;56325;47.030;18.518;2022-09-12T11:54:51;100370.06;;;20.24;56.83
69214;BME280;56325;47.030;18.518;2022-09-12T11:57:34;100358.69;;;20.47;55.89
69214;BME280;56325;47.030;18.518;2022-09-12T12:00:15;100355.75;;;20.34;55.08
69214;BME280;56325;47.030;18.518;2022-09-12T12:03:00;100364.47;;;20.24;55.09
69214;BME280;56325;47.030;18.518;2022-09-12T12:05:43;100362.37;;;20.30;55.38
69214;BME280;56325;47.030;18.518;2022-09-12T12:08:24;100357.84;;;20.76;55.09
69214;BME280;56325;47.030;18.518;2022-09-12T12:10:59;100346.19;;;21.47;53.82
69214;BME280;56325;47.030;18.518;2022-09-12T12:13:36;100336.41;;;21.99;50.90
69214;BME280;56325;47.030;18.518;2022-09-12T12:16:15;100332.81;;;22.31;49.04
69214;BME280;56325;47.030;18.518;2022-09-12T12:18:55;100332.81;;;22.31;48.72
69214;BME280;56325;47.030;18.518;2022-09-12T12:21:36;100323.62;;;22.56;48.46
69214;BME280;56325;47.030;18.518;2022-09-12T12:24:15;100324.66;;;22.93;47.80
69214;BME280;56325;47.030;18.518;2022-09-12T12:26:58;100321.53;;;22.97;47.03
69214;BME280;56325;47.030;18.518;2022-09-12T12:29:38;100317.66;;;23.00;47.50
69214;BME280;56325;47.030;18.518;2022-09-12T12:32:23;100310.56;;;22.85;46.89
69214;BME280;56325;47.030;18.518;2022-09-12T12:35:37;100318.00;;;22.56;46.80
69214;BME280;56325;47.030;18.518;2022-09-12T12:38:28;100321.97;;;22.74;47.40
69214;BME280;56325;47.030;18.518;2022-09-12T12:44:46;100319.94;;;23.22;46.93
69214;BME280;56325;47.030;18.518;2022-09-12T12:47:23;100302.69;;;23.18;47.12
69214;BME280;56325;47.030;18.518;2022-09-12T12:50:01;100312.69;;;23.47;47.19
69214;BME280;56325;47.030;18.518;2022-09-12T12:52:44;100317.09;;;23.56;45.97
69214;BME280;56325;47.030;18.518;2022-09-12T12:55:24;100308.53;;;23.62;46.00
69214;BME280;56325;47.030;18.518;2022-09-12T12:58:01;100312.22;;;23.36;47.32
69214;BME280;56325;47.030;18.518;2022-09-12T13:00:38;100304.06;;;23.45;47.54
69214;BME280;56325;47.030;18.518;2022-09-12T13:03:25;100309.34;;;23.49;47.27
69214;BME280;56325;47.030;18.518;2022-09-12T13:06:04;100302.63;;;23.10;48.20
69214;BME280;56325;47.030;18.518;2022-09-12T13:08:43;100307.22;;;22.87;49.13
69214;BME280;56325;47.030;18.518;2022-09-12T13:11:29;100298.25;;;22.75;49.21
69214;BME280;56325;47.030;18.518;2022-09-12T13:14:06;100295.94;;;22.53;49.76
69214;BME280;56325;47.030;18.518;2022-09-12T13:16:52;100299.66;;;22.95;47.95
69214;BME280;56325;47.030;18.518;2022-09-12T13:19:29;100286.28;;;23.43;46.52
69214;BME280;56325;47.030;18.518;2022-09-12T13:22:06;100283.72;;;23.52;45.77
69214;BME280;56325;47.030;18.518;2022-09-12T13:24:45;100285.28;;;23.53;44.79
69214;BME280;56325;47.030;18.518;2022-09-12T13:27:23;100289.69;;;23.07;45.27
69214;BME280;56325;47.030;18.518;2022-09-12T13:30:06;100286.66;;;22.58;45.60
69214;BME280;56325;47.030;18.518;2022-09-12T13:32:41;100276.66;;;22.97;44.85
69214;BME280;56325;47.030;18.518;2022-09-12T13:35:21;100285.28;;;22.99;45.15
69214;BME280;56325;47.030;18.518;2022-09-12T13:38:01;100277.19;;;23.29;44.18
69214;BME280;56325;47.030;18.518;2022-09-12T13:40:53;100278.88;;;23.11;44.07
69214;BME280;56325;47.030;18.518;2022-09-12T13:43:39;100278.97;;;22.72;44.98
69214;BME280;56325;47.030;18.518;2022-09-12T13:46:17;100277.75;;;22.33;45.77
69214;BME280;56325;47.030;18.518;2022-09-12T13:48:57;100284.44;;;22.04;46.75
69214;BME280;56325;47.030;18.518;2022-09-12T13:51:33;100275.94;;;22.22;47.03
69214;BME280;56325;47.030;18.518;2022-09-12T13:54:11;100265.16;;;22.27;47.20
69214;BME280;56325;47.030;18.518;2022-09-12T13:56:55;100275.94;;;22.09;47.16
69214;BME280;56325;47.030;18.518;2022-09-12T13:59:38;100272.16;;;22.07;47.34
69214;BME280;56325;47.030;18.518;2022-09-12T14:02:17;100278.16;;;21.98;48.39
69214;BME280;56325;47.030;18.518;2022-09-12T14:04:53;100273.78;;;22.02;47.89
69214;BME280;56325;47.030;18.518;2022-09-12T14:07:48;100277.19;;;21.95;48.08